Time,TemperatureF,DewpointF,PressureIn,WindDirection,WindDirectionDegrees,WindSpeedMPH,WindSpeedGustMPH,Humidity,HourlyPrecipIn,Conditions,Clouds,dailyrainin,SolarRadiationWatts/m^2,SoftwareType,DateUTC
2013-05-23 00:02:00,40.0,39.0,-100.00,South,175,1.0,5.0,98,0.04,,,0.06,0.000000,,2013-05-23 07:02:00,
2013-05-23 00:11:00,40.0,39.0,-100.00,South,175,1.0,5.0,98,0.04,,,0.06,0.000000,,2013-05-23 07:11:00,
2013-05-23 00:21:00,40.0,39.0,-100.00,South,175,1.0,5.0,98,0.04,,,0.06,0.000000,,2013-05-23 07:21:00,
2013-05-23 00:59:00,39.0,38.0,-100.00,South,175,3.0,5.0,98,0.13,,,0.19,0.000000,,2013-05-23 07:59:00,
2013-05-23 01:11:00,39.0,38.0,-100.00,South,175,3.0,5.0,98,0.13,,,0.19,0.000000,,2013-05-23 08:11:00,
2013-05-23 01:21:00,39.0,38.0,-100.00,South,175,3.0,5.0,98,0.13,,,0.19,0.000000,,2013-05-23 08:21:00,
2013-05-23 01:52:00,38.0,37.0,-100.00,SE,130,0.0,4.0,98,0.05,,,0.23,0.000000,,2013-05-23 08:52:00,
2013-05-23 02:01:00,38.0,37.0,-100.00,SE,130,0.0,4.0,98,0.05,,,0.23,0.000000,,2013-05-23 09:01:00,
2013-05-23 02:11:00,38.0,37.0,-100.00,SE,130,0.0,4.0,98,0.05,,,0.23,0.000000,,2013-05-23 09:11:00,
2013-05-23 02:21:00,38.0,37.0,-100.00,SE,130,0.0,4.0,98,0.05,,,0.23,0.000000,,2013-05-23 09:21:00,
2013-05-23 02:53:00,38.0,37.0,-100.00,SE,129,0.0,2.0,98,0.08,,,0.30,0.000000,,2013-05-23 09:53:00,
2013-05-23 03:02:00,38.0,37.0,-100.00,SE,129,0.0,2.0,98,0.08,,,0.30,0.000000,,2013-05-23 10:02:00,
2013-05-23 03:12:00,38.0,37.0,-100.00,SE,129,0.0,2.0,98,0.08,,,0.30,0.000000,,2013-05-23 10:12:00,
2013-05-23 03:22:00,38.0,37.0,-100.00,SE,129,0.0,2.0,98,0.08,,,0.30,0.000000,,2013-05-23 10:22:00,
2013-05-23 03:52:00,38.0,38.0,-100.00,SSE,166,1.0,3.0,99,0.05,,,0.35,0.000000,,2013-05-23 10:52:00,
2013-05-23 04:02:00,38.0,38.0,-100.00,SSE,166,1.0,3.0,99,0.05,,,0.35,0.000000,,2013-05-23 11:02:00,
2013-05-23 04:11:00,38.0,38.0,-100.00,SSE,166,1.0,3.0,99,0.05,,,0.35,0.000000,,2013-05-23 11:11:00,
2013-05-23 04:21:00,38.0,38.0,-100.00,SSE,166,1.0,3.0,99,0.05,,,0.35,0.000000,,2013-05-23 11:21:00,
2013-05-23 04:52:00,38.0,38.0,-100.00,South,189,1.0,3.0,99,0.01,,,0.36,0.000000,,2013-05-23 11:52:00,
2013-05-23 05:01:00,38.0,38.0,-100.00,South,189,1.0,3.0,99,0.01,,,0.36,0.000000,,2013-05-23 12:01:00,
2013-05-23 05:11:00,38.0,38.0,-100.00,South,189,1.0,3.0,99,0.01,,,0.36,0.000000,,2013-05-23 12:11:00,
2013-05-23 05:21:00,38.0,38.0,-100.00,South,189,1.0,3.0,99,0.01,,,0.36,0.000000,,2013-05-23 12:21:00,
2013-05-23 05:52:00,38.0,38.0,-100.00,ESE,106,0.0,3.0,99,0.00,,,0.36,0.000000,,2013-05-23 12:52:00,
2013-05-23 06:01:00,38.0,38.0,-100.00,ESE,106,0.0,3.0,99,0.00,,,0.36,0.000000,,2013-05-23 13:01:00,
2013-05-23 06:11:00,38.0,38.0,-100.00,ESE,106,0.0,3.0,99,0.00,,,0.36,0.000000,,2013-05-23 13:11:00,
2013-05-23 06:21:00,38.0,38.0,-100.00,ESE,106,0.0,3.0,99,0.00,,,0.36,0.000000,,2013-05-23 13:21:00,
2013-05-23 06:52:00,40.0,40.0,-100.00,SW,219,0.0,2.0,99,0.00,,,0.36,55.000000,,2013-05-23 13:52:00,
2013-05-23 07:01:00,40.0,40.0,-100.00,SW,219,0.0,2.0,99,0.00,,,0.36,55.000000,,2013-05-23 14:01:00,
2013-05-23 07:11:00,40.0,40.0,-100.00,SW,219,0.0,2.0,99,0.00,,,0.36,55.000000,,2013-05-23 14:11:00,
2013-05-23 07:21:00,40.0,40.0,-100.00,SW,219,0.0,2.0,99,0.00,,,0.36,55.000000,,2013-05-23 14:21:00,
2013-05-23 07:52:00,41.0,40.0,-100.00,WNW,293,1.0,4.0,97,0.00,,,0.36,169.000000,,2013-05-23 14:52:00,
2013-05-23 08:01:00,41.0,40.0,-100.00,WNW,293,1.0,4.0,97,0.00,,,0.36,169.000000,,2013-05-23 15:01:00,
2013-05-23 08:11:00,41.0,40.0,-100.00,WNW,293,1.0,4.0,97,0.00,,,0.36,169.000000,,2013-05-23 15:11:00,
2013-05-23 08:21:00,41.0,40.0,-100.00,WNW,293,1.0,4.0,97,0.00,,,0.36,169.000000,,2013-05-23 15:21:00,
2013-05-23 08:53:00,42.0,41.0,-100.00,NW,305,2.0,5.0,97,0.00,,,0.36,197.000000,,2013-05-23 15:53:00,
2013-05-23 09:03:00,42.0,41.0,-100.00,NW,305,2.0,5.0,97,0.00,,,0.36,197.000000,,2013-05-23 16:03:00,
2013-05-23 09:12:00,42.0,41.0,-100.00,NW,305,2.0,5.0,97,0.00,,,0.36,197.000000,,2013-05-23 16:12:00,
2013-05-23 09:22:00,42.0,41.0,-100.00,NW,305,2.0,5.0,97,0.00,,,0.36,197.000000,,2013-05-23 16:22:00,
2013-05-23 09:52:00,43.0,41.0,-100.00,NW,314,3.0,7.0,94,0.00,,,0.36,282.000000,,2013-05-23 16:52:00,
2013-05-23 10:03:00,43.0,41.0,-100.00,NW,314,3.0,7.0,94,0.00,,,0.36,282.000000,,2013-05-23 17:03:00,
2013-05-23 10:11:00,43.0,41.0,-100.00,NW,314,3.0,7.0,94,0.00,,,0.36,282.000000,,2013-05-23 17:11:00,
2013-05-23 10:22:00,43.0,41.0,-100.00,NW,314,3.0,7.0,94,0.00,,,0.36,282.000000,,2013-05-23 17:22:00,
2013-05-23 10:52:00,44.0,41.0,-100.00,North,2,2.0,6.0,90,0.01,,,0.37,340.000000,,2013-05-23 17:52:00,
2013-05-23 11:01:00,44.0,41.0,-100.00,North,2,2.0,6.0,90,0.01,,,0.37,340.000000,,2013-05-23 18:01:00,
2013-05-23 11:11:00,44.0,41.0,-100.00,North,2,2.0,6.0,90,0.01,,,0.37,340.000000,,2013-05-23 18:11:00,
2013-05-23 11:21:00,44.0,41.0,-100.00,North,2,2.0,6.0,90,0.01,,,0.37,340.000000,,2013-05-23 18:21:00,
2013-05-23 11:52:00,46.0,42.0,-100.00,WNW,302,4.0,7.0,86,0.01,,,0.38,452.000000,,2013-05-23 18:52:00,
2013-05-23 12:01:00,46.0,42.0,-100.00,WNW,302,4.0,7.0,86,0.01,,,0.38,452.000000,,2013-05-23 19:01:00,
2013-05-23 12:11:00,46.0,42.0,-100.00,WNW,302,4.0,7.0,86,0.01,,,0.38,452.000000,,2013-05-23 19:11:00,
2013-05-23 12:21:00,46.0,42.0,-100.00,WNW,302,4.0,7.0,86,0.01,,,0.38,452.000000,,2013-05-23 19:21:00,
2013-05-23 12:52:00,46.0,43.0,-100.00,NW,312,4.0,8.0,90,0.00,,,0.38,316.000000,,2013-05-23 19:52:00,
2013-05-23 13:02:00,46.0,43.0,-100.00,NW,312,4.0,8.0,90,0.00,,,0.38,316.000000,,2013-05-23 20:02:00,
2013-05-23 13:11:00,46.0,43.0,-100.00,NW,312,4.0,8.0,90,0.00,,,0.38,316.000000,,2013-05-23 20:11:00,
2013-05-23 13:21:00,46.0,43.0,-100.00,NW,312,4.0,8.0,90,0.00,,,0.38,316.000000,,2013-05-23 20:21:00,
2013-05-23 13:52:00,45.0,44.0,-100.00,West,274,3.0,8.0,95,0.02,,,0.40,239.000000,,2013-05-23 20:52:00,
2013-05-23 14:01:00,45.0,44.0,-100.00,West,274,3.0,8.0,95,0.02,,,0.40,239.000000,,2013-05-23 21:01:00,
2013-05-23 14:11:00,45.0,44.0,-100.00,West,274,3.0,8.0,95,0.02,,,0.40,239.000000,,2013-05-23 21:11:00,
2013-05-23 14:21:00,45.0,44.0,-100.00,West,274,3.0,8.0,95,0.02,,,0.40,239.000000,,2013-05-23 21:21:00,
2013-05-23 14:53:00,43.0,42.0,-100.00,NNE,22,2.0,8.0,95,0.05,,,0.45,241.000000,,2013-05-23 21:53:00,
2013-05-23 15:02:00,43.0,42.0,-100.00,NNE,22,2.0,8.0,95,0.05,,,0.45,241.000000,,2013-05-23 22:02:00,
2013-05-23 15:12:00,43.0,42.0,-100.00,NNE,22,2.0,8.0,95,0.05,,,0.45,241.000000,,2013-05-23 22:12:00,
2013-05-23 15:22:00,43.0,42.0,-100.00,NNE,22,2.0,8.0,95,0.05,,,0.45,241.000000,,2013-05-23 22:22:00,
2013-05-23 15:52:00,42.0,41.0,-100.00,South,172,0.0,4.0,96,0.12,,,0.57,95.000000,,2013-05-23 22:52:00,
2013-05-23 16:01:00,42.0,41.0,-100.00,South,172,0.0,4.0,96,0.12,,,0.57,95.000000,,2013-05-23 23:01:00,
2013-05-23 16:11:00,42.0,41.0,-100.00,South,172,0.0,4.0,96,0.12,,,0.57,95.000000,,2013-05-23 23:11:00,
2013-05-23 16:21:00,42.0,41.0,-100.00,South,172,0.0,4.0,96,0.12,,,0.57,95.000000,,2013-05-23 23:21:00,
2013-05-23 16:52:00,46.0,44.0,-100.00,ENE,60,1.0,5.0,91,0.01,,,0.58,314.000000,,2013-05-23 23:52:00,
2013-05-23 17:01:00,46.0,44.0,-100.00,ENE,60,1.0,5.0,91,0.01,,,0.58,314.000000,,2013-05-24 00:01:00,
2013-05-23 17:11:00,46.0,44.0,-100.00,ENE,60,1.0,5.0,91,0.01,,,0.58,314.000000,,2013-05-24 00:11:00,
2013-05-23 17:21:00,46.0,44.0,-100.00,ENE,60,1.0,5.0,91,0.01,,,0.58,314.000000,,2013-05-24 00:21:00,
2013-05-23 17:52:00,46.0,44.0,-100.00,South,190,1.0,4.0,93,0.03,,,0.61,270.000000,,2013-05-24 00:52:00,
2013-05-23 18:01:00,46.0,44.0,-100.00,South,190,1.0,4.0,93,0.03,,,0.61,270.000000,,2013-05-24 01:01:00,
2013-05-23 18:12:00,46.0,44.0,-100.00,South,190,1.0,4.0,93,0.03,,,0.61,270.000000,,2013-05-24 01:12:00,
2013-05-23 18:22:00,46.0,44.0,-100.00,South,190,1.0,4.0,93,0.03,,,0.61,270.000000,,2013-05-24 01:22:00,
2013-05-23 18:52:00,45.0,43.0,-100.00,NNW,337,0.0,6.0,91,0.00,,,0.61,197.000000,,2013-05-24 01:52:00,
2013-05-23 19:01:00,45.0,43.0,-100.00,NNW,337,0.0,6.0,91,0.00,,,0.61,197.000000,,2013-05-24 02:01:00,
2013-05-23 19:11:00,45.0,43.0,-100.00,NNW,337,0.0,6.0,91,0.00,,,0.61,197.000000,,2013-05-24 02:11:00,
2013-05-23 19:21:00,45.0,43.0,-100.00,NNW,337,0.0,6.0,91,0.00,,,0.61,197.000000,,2013-05-24 02:21:00,
2013-05-23 19:52:00,46.0,41.0,-100.00,North,11,3.0,6.0,81,0.00,,,0.61,220.000000,,2013-05-24 02:52:00,
2013-05-23 20:02:00,46.0,41.0,-100.00,North,11,3.0,6.0,81,0.00,,,0.61,220.000000,,2013-05-24 03:02:00,
2013-05-23 20:11:00,46.0,41.0,-100.00,North,11,3.0,6.0,81,0.00,,,0.61,220.000000,,2013-05-24 03:11:00,
2013-05-23 20:21:00,46.0,41.0,-100.00,North,11,3.0,6.0,81,0.00,,,0.61,220.000000,,2013-05-24 03:21:00,
2013-05-23 20:53:00,43.0,41.0,-100.00,NW,324,1.0,4.0,91,0.01,,,0.62,79.000000,,2013-05-24 03:53:00,
2013-05-23 21:03:00,43.0,41.0,-100.00,NW,324,1.0,4.0,91,0.01,,,0.62,79.000000,,2013-05-24 04:03:00,
2013-05-23 21:12:00,43.0,41.0,-100.00,NW,324,1.0,4.0,91,0.01,,,0.62,79.000000,,2013-05-24 04:12:00,
2013-05-23 21:22:00,43.0,41.0,-100.00,NW,324,1.0,4.0,91,0.01,,,0.62,79.000000,,2013-05-24 04:22:00,
2013-05-23 21:53:00,41.0,40.0,-100.00,West,268,3.0,8.0,98,0.01,,,0.63,9.000000,,2013-05-24 04:53:00,
2013-05-23 22:02:00,41.0,40.0,-100.00,West,268,3.0,8.0,98,0.01,,,0.63,9.000000,,2013-05-24 05:02:00,
2013-05-23 22:12:00,41.0,40.0,-100.00,West,268,3.0,8.0,98,0.01,,,0.63,9.000000,,2013-05-24 05:12:00,
2013-05-23 22:22:00,41.0,40.0,-100.00,West,268,3.0,8.0,98,0.01,,,0.63,9.000000,,2013-05-24 05:22:00,
2013-05-23 22:52:00,41.0,40.0,-100.00,West,273,0.0,4.0,98,0.00,,,0.63,0.000000,,2013-05-24 05:52:00,
2013-05-23 23:01:00,41.0,40.0,-100.00,West,273,0.0,4.0,98,0.00,,,0.63,0.000000,,2013-05-24 06:01:00,
2013-05-23 23:12:00,41.0,40.0,-100.00,West,273,0.0,4.0,98,0.00,,,0.63,0.000000,,2013-05-24 06:12:00,
2013-05-23 23:21:00,41.0,40.0,-100.00,West,273,0.0,4.0,98,0.00,,,0.63,0.000000,,2013-05-24 06:21:00,
2013-05-23 23:52:00,40.0,40.0,-100.00,NNW,340,0.0,2.0,99,0.00,,,0.59,0.000000,,2013-05-24 06:52:00,